sensor_id;sensor_type;location;lat;lon;timestamp;pressure;altitude;pressure_sealevel;temperature
12430;BMP280;6279;42.192;24.326;2023-12-20T00:01:40;99539.94;;;3.15
12430;BMP280;6279;42.192;24.326;2023-12-20T00:04:06;99538.78;;;3.19
12430;BMP280;6279;42.192;24.326;2023-12-20T00:06:31;99538.34;;;3.25
12430;BMP280;6279;42.192;24.326;2023-12-20T00:08:57;99531.06;;;3.19
12430;BMP280;6279;42.192;24.326;2023-12-20T00:11:25;99538.28;;;3.14
12430;BMP280;6279;42.192;24.326;2023-12-20T00:13:52;99536.31;;;3.18
12430;BMP280;6279;42.192;24.326;2023-12-20T00:16:17;99525.00;;;3.20
12430;BMP280;6279;42.192;24.326;2023-12-20T00:18:43;99538.06;;;3.17
12430;BMP280;6279;42.192;24.326;2023-12-20T00:21:08;99534.06;;;3.13
12430;BMP280;6279;42.192;24.326;2023-12-20T00:23:33;99539.22;;;3.13
12430;BMP280;6279;42.192;24.326;2023-12-20T00:25:59;99538.84;;;3.07
12430;BMP280;6279;42.192;24.326;2023-12-20T00:28:25;99534.31;;;3.10
12430;BMP280;6279;42.192;24.326;2023-12-20T00:30:50;99530.81;;;3.11
12430;BMP280;6279;42.192;24.326;2023-12-20T00:33:16;99519.59;;;3.12
12430;BMP280;6279;42.192;24.326;2023-12-20T00:35:41;99520.91;;;3.18
12430;BMP280;6279;42.192;24.326;2023-12-20T00:38:07;99519.59;;;3.12
12430;BMP280;6279;42.192;24.326;2023-12-20T00:40:33;99509.78;;;3.17
12430;BMP280;6279;42.192;24.326;2023-12-20T00:42:59;99514.44;;;3.12
12430;BMP280;6279;42.192;24.326;2023-12-20T00:45:24;99510.25;;;3.11
12430;BMP280;6279;42.192;24.326;2023-12-20T00:47:50;99514.59;;;2.99
12430;BMP280;6279;42.192;24.326;2023-12-20T00:50:15;99516.25;;;3.00
12430;BMP280;6279;42.192;24.326;2023-12-20T00:52:41;99514.94;;;2.94
12430;BMP280;6279;42.192;24.326;2023-12-20T00:55:06;99515.69;;;2.84
12430;BMP280;6279;42.192;24.326;2023-12-20T00:57:32;99515.16;;;2.91
12430;BMP280;6279;42.192;24.326;2023-12-20T00:59:58;99509.25;;;3.02
12430;BMP280;6279;42.192;24.326;2023-12-20T01:02:24;99510.19;;;3.01
12430;BMP280;6279;42.192;24.326;2023-12-20T01:04:49;99506.91;;;2.99
12430;BMP280;6279;42.192;24.326;2023-12-20T01:07:14;99500.28;;;2.84
12430;BMP280;6279;42.192;24.326;2023-12-20T01:09:40;99500.09;;;2.87
12430;BMP280;6279;42.192;24.326;2023-12-20T01:12:05;99483.53;;;2.91
12430;BMP280;6279;42.192;24.326;2023-12-20T01:14:31;99477.22;;;2.95
12430;BMP280;6279;42.192;24.326;2023-12-20T01:16:56;99480.94;;;2.91
12430;BMP280;6279;42.192;24.326;2023-12-20T01:19:22;99485.50;;;2.87
12430;BMP280;6279;42.192;24.326;2023-12-20T01:21:50;99477.38;;;2.81
12430;BMP280;6279;42.192;24.326;2023-12-20T01:24:15;99484.59;;;2.76
12430;BMP280;6279;42.192;24.326;2023-12-20T01:26:41;99488.91;;;2.76
12430;BMP280;6279;42.192;24.326;2023-12-20T01:29:06;99472.47;;;2.78
12430;BMP280;6279;42.192;24.326;2023-12-20T01:31:31;99467.25;;;2.67
12430;BMP280;6279;42.192;24.326;2023-12-20T01:33:57;99465.47;;;2.80
12430;BMP280;6279;42.192;24.326;2023-12-20T01:36:22;99452.41;;;2.83
12430;BMP280;6279;42.192;24.326;2023-12-20T01:38:48;99450.41;;;2.76
12430;BMP280;6279;42.192;24.326;2023-12-20T01:41:13;99450.22;;;2.66
12430;BMP280;6279;42.192;24.326;2023-12-20T01:43:38;99440.69;;;2.68
12430;BMP280;6279;42.192;24.326;2023-12-20T01:46:04;99448.78;;;2.62
12430;BMP280;6279;42.192;24.326;2023-12-20T01:48:30;99438.59;;;2.73
12430;BMP280;6279;42.192;24.326;2023-12-20T01:50:59;99439.53;;;2.72
12430;BMP280;6279;42.192;24.326;2023-12-20T01:53:25;99435.34;;;2.59
12430;BMP280;6279;42.192;24.326;2023-12-20T01:55:52;99430.56;;;2.55
12430;BMP280;6279;42.192;24.326;2023-12-20T01:58:18;99409.50;;;2.50
12430;BMP280;6279;42.192;24.326;2023-12-20T02:00:45;99413.53;;;2.54
12430;BMP280;6279;42.192;24.326;2023-12-20T02:03:11;99410.34;;;2.50
12430;BMP280;6279;42.192;24.326;2023-12-20T02:05:37;99403.25;;;2.54
12430;BMP280;6279;42.192;24.326;2023-12-20T02:08:04;99411.09;;;2.40
12430;BMP280;6279;42.192;24.326;2023-12-20T02:10:31;99399.63;;;2.33
12430;BMP280;6279;42.192;24.326;2023-12-20T02:12:56;99402.38;;;2.30
12430;BMP280;6279;42.192;24.326;2023-12-20T02:15:22;99404.34;;;2.27
12430;BMP280;6279;42.192;24.326;2023-12-20T02:17:47;99396.31;;;2.31
12430;BMP280;6279;42.192;24.326;2023-12-20T02:20:13;99395.13;;;2.24
12430;BMP280;6279;42.192;24.326;2023-12-20T02:22:40;99395.97;;;2.13
12430;BMP280;6279;42.192;24.326;2023-12-20T02:25:05;99394.97;;;2.03
12430;BMP280;6279;42.192;24.326;2023-12-20T02:27:31;99391.13;;;1.85
12430;BMP280;6279;42.192;24.326;2023-12-20T02:29:57;99393.19;;;1.80
12430;BMP280;6279;42.192;24.326;2023-12-20T02:32:24;99387.13;;;1.69
12430;BMP280;6279;42.192;24.326;2023-12-20T02:34:54;99392.97;;;1.71
12430;BMP280;6279;42.192;24.326;2023-12-20T02:37:20;99394.09;;;1.67
12430;BMP280;6279;42.192;24.326;2023-12-20T02:39:45;99396.47;;;1.70
12430;BMP280;6279;42.192;24.326;2023-12-20T02:42:10;99378.91;;;1.76
12430;BMP280;6279;42.192;24.326;2023-12-20T02:44:36;99383.59;;;1.95
12430;BMP280;6279;42.192;24.326;2023-12-20T02:47:02;99383.41;;;1.85
12430;BMP280;6279;42.192;24.326;2023-12-20T02:49:27;99381.91;;;1.83
12430;BMP280;6279;42.192;24.326;2023-12-20T02:51:52;99379.84;;;1.75
12430;BMP280;6279;42.192;24.326;2023-12-20T02:54:18;99375.41;;;1.90
12430;BMP280;6279;42.192;24.326;2023-12-20T02:56:43;99371.03;;;1.79
12430;BMP280;6279;42.192;24.326;2023-12-20T02:59:09;99366.41;;;1.84
12430;BMP280;6279;42.192;24.326;2023-12-20T03:01:34;99366.41;;;1.84
12430;BMP280;6279;42.192;24.326;2023-12-20T03:04:01;99363.03;;;1.72
12430;BMP280;6279;42.192;24.326;2023-12-20T03:06:26;99360.97;;;1.76
12430;BMP280;6279;42.192;24.326;2023-12-20T03:08:51;99356.66;;;1.77
12430;BMP280;6279;42.192;24.326;2023-12-20T03:11:17;99360.34;;;1.73
12430;BMP280;6279;42.192;24.326;2023-12-20T03:13:42;99363.50;;;1.89
12430;BMP280;6279;42.192;24.326;2023-12-20T03:16:09;99363.63;;;1.75
12430;BMP280;6279;42.192;24.326;2023-12-20T03:18:35;99369.19;;;1.81
12430;BMP280;6279;42.192;24.326;2023-12-20T03:21:00;99364.97;;;1.80
12430;BMP280;6279;42.192;24.326;2023-12-20T03:23:26;99363.72;;;1.86
12430;BMP280;6279;42.192;24.326;2023-12-20T03:25:52;99352.28;;;1.79
12430;BMP280;6279;42.192;24.326;2023-12-20T03:28:17;99354.72;;;1.68
12430;BMP280;6279;42.192;24.326;2023-12-20T03:30:43;99356.69;;;1.65
12430;BMP280;6279;42.192;24.326;2023-12-20T03:33:09;99357.41;;;1.54
12430;BMP280;6279;42.192;24.326;2023-12-20T03:35:34;99358.66;;;1.61
12430;BMP280;6279;42.192;24.326;2023-12-20T03:38:00;99358.72;;;1.60
12430;BMP280;6279;42.192;24.326;2023-12-20T03:40:25;99354.84;;;1.54
12430;BMP280;6279;42.192;24.326;2023-12-20T03:42:51;99353.00;;;1.69
12430;BMP280;6279;42.192;24.326;2023-12-20T03:45:16;99354.09;;;1.77
12430;BMP280;6279;42.192;24.326;2023-12-20T03:47:41;99351.41;;;1.78
12430;BMP280;6279;42.192;24.326;2023-12-20T03:50:07;99364.44;;;1.75
12430;BMP280;6279;42.192;24.326;2023-12-20T03:52:32;99360.69;;;1.69
12430;BMP280;6279;42.192;24.326;2023-12-20T03:54:58;99357.81;;;1.61
12430;BMP280;6279;42.192;24.326;2023-12-20T03:57:23;99365.00;;;1.56
12430;BMP280;6279;42.192;24.326;2023-12-20T03:59:48;99350.25;;;1.47
12430;BMP280;6279;42.192;24.326;2023-12-20T04:02:14;99341.22;;;1.42
12430;BMP280;6279;42.192;24.326;2023-12-20T04:04:39;99348.28;;;1.38
12430;BMP280;6279;42.192;24.326;2023-12-20T04:07:04;99341.53;;;1.37
12430;BMP280;6279;42.192;24.326;2023-12-20T04:09:30;99337.00;;;1.53
12430;BMP280;6279;42.192;24.326;2023-12-20T04:11:55;99345.31;;;1.56
12430;BMP280;6279;42.192;24.326;2023-12-20T04:14:21;99337.81;;;1.53
12430;BMP280;6279;42.192;24.326;2023-12-20T04:16:46;99341.13;;;1.43
12430;BMP280;6279;42.192;24.326;2023-12-20T04:19:11;99342.34;;;1.38
12430;BMP280;6279;42.192;24.326;2023-12-20T04:21:37;99346.66;;;1.37
12430;BMP280;6279;42.192;24.326;2023-12-20T04:24:02;99347.06;;;1.31
12430;BMP280;6279;42.192;24.326;2023-12-20T04:26:28;99353.22;;;1.29
12430;BMP280;6279;42.192;24.326;2023-12-20T04:28:54;99334.97;;;1.33
12430;BMP280;6279;42.192;24.326;2023-12-20T04:31:19;99337.03;;;1.29
12430;BMP280;6279;42.192;24.326;2023-12-20T04:33:45;99338.13;;;1.25
12430;BMP280;6279;42.192;24.326;2023-12-20T04:36:10;99329.03;;;1.21
12430;BMP280;6279;42.192;24.326;2023-12-20T04:38:36;99329.56;;;1.13
12430;BMP280;6279;42.192;24.326;2023-12-20T04:41:01;99319.53;;;1.10
12430;BMP280;6279;42.192;24.326;2023-12-20T04:43:27;99318.81;;;1.09
12430;BMP280;6279;42.192;24.326;2023-12-20T04:45:53;99321.63;;;1.04
12430;BMP280;6279;42.192;24.326;2023-12-20T04:48:18;99318.88;;;1.07
12430;BMP280;6279;42.192;24.326;2023-12-20T04:50:44;99314.88;;;1.03
12430;BMP280;6279;42.192;24.326;2023-12-20T04:53:09;99310.38;;;0.94
12430;BMP280;6279;42.192;24.326;2023-12-20T04:55:35;99303.00;;;0.90
12430;BMP280;6279;42.192;24.326;2023-12-20T04:58:00;99308.44;;;0.98
12430;BMP280;6279;42.192;24.326;2023-12-20T05:00:26;99307.41;;;1.00
12430;BMP280;6279;42.192;24.326;2023-12-20T05:02:51;99316.53;;;1.04
12430;BMP280;6279;42.192;24.326;2023-12-20T05:05:17;99307.00;;;1.06
12430;BMP280;6279;42.192;24.326;2023-12-20T05:07:43;99304.03;;;1.00
12430;BMP280;6279;42.192;24.326;2023-12-20T05:10:09;99298.31;;;0.96
12430;BMP280;6279;42.192;24.326;2023-12-20T05:12:34;99295.03;;;0.94
12430;BMP280;6279;42.192;24.326;2023-12-20T05:15:00;99298.41;;;0.95
12430;BMP280;6279;42.192;24.326;2023-12-20T05:17:25;99291.13;;;1.01
12430;BMP280;6279;42.192;24.326;2023-12-20T05:19:51;99295.53;;;0.99
12430;BMP280;6279;42.192;24.326;2023-12-20T05:22:18;99289.38;;;1.02
12430;BMP280;6279;42.192;24.326;2023-12-20T05:24:44;99276.38;;;1.05
12430;BMP280;6279;42.192;24.326;2023-12-20T05:27:09;99283.94;;;1.06
12430;BMP280;6279;42.192;24.326;2023-12-20T05:29:35;99283.25;;;1.16
12430;BMP280;6279;42.192;24.326;2023-12-20T05:32:00;99280.06;;;1.25
12430;BMP280;6279;42.192;24.326;2023-12-20T05:34:25;99276.91;;;1.09
12430;BMP280;6279;42.192;24.326;2023-12-20T05:36:51;99270.00;;;1.22
12430;BMP280;6279;42.192;24.326;2023-12-20T05:39:16;99267.34;;;1.36
12430;BMP280;6279;42.192;24.326;2023-12-20T05:41:42;99278.41;;;1.36
12430;BMP280;6279;42.192;24.326;2023-12-20T05:44:07;99265.38;;;1.39
12430;BMP280;6279;42.192;24.326;2023-12-20T05:46:33;99266.72;;;1.45
12430;BMP280;6279;42.192;24.326;2023-12-20T05:48:58;99269.09;;;1.35
12430;BMP280;6279;42.192;24.326;2023-12-20T05:51:23;99267.94;;;1.39
12430;BMP280;6279;42.192;24.326;2023-12-20T05:53:49;99268.97;;;1.37
12430;BMP280;6279;42.192;24.326;2023-12-20T05:56:15;99262.81;;;1.39
12430;BMP280;6279;42.192;24.326;2023-12-20T05:58:41;99259.31;;;1.40
12430;BMP280;6279;42.192;24.326;2023-12-20T06:01:06;99260.56;;;1.47
12430;BMP280;6279;42.192;24.326;2023-12-20T06:03:33;99255.84;;;1.41
12430;BMP280;6279;42.192;24.326;2023-12-20T06:05:59;99254.78;;;1.56
12430;BMP280;6279;42.192;24.326;2023-12-20T06:08:25;99246.38;;;1.66
12430;BMP280;6279;42.192;24.326;2023-12-20T06:10:51;99250.47;;;1.56
12430;BMP280;6279;42.192;24.326;2023-12-20T06:13:16;99252.44;;;1.53
12430;BMP280;6279;42.192;24.326;2023-12-20T06:15:42;99253.47;;;1.63
12430;BMP280;6279;42.192;24.326;2023-12-20T06:18:07;99236.72;;;1.70
12430;BMP280;6279;42.192;24.326;2023-12-20T06:20:33;99244.03;;;1.86
12430;BMP280;6279;42.192;24.326;2023-12-20T06:22:58;99228.13;;;2.27
12430;BMP280;6279;42.192;24.326;2023-12-20T06:25:24;99233.81;;;3.20
12430;BMP280;6279;42.192;24.326;2023-12-20T06:27:49;99208.50;;;4.40
12430;BMP280;6279;42.192;24.326;2023-12-20T06:30:15;99209.56;;;5.66
12430;BMP280;6279;42.192;24.326;2023-12-20T06:32:41;99199.03;;;6.61
12430;BMP280;6279;42.192;24.326;2023-12-20T06:35:08;99201.53;;;7.43
12430;BMP280;6279;42.192;24.326;2023-12-20T06:37:34;99199.16;;;8.37
12430;BMP280;6279;42.192;24.326;2023-12-20T06:39:59;99197.44;;;9.70
12430;BMP280;6279;42.192;24.326;2023-12-20T06:42:24;99195.50;;;10.67
12430;BMP280;6279;42.192;24.326;2023-12-20T06:44:50;99200.63;;;11.38
12430;BMP280;6279;42.192;24.326;2023-12-20T06:47:15;99184.72;;;12.74
12430;BMP280;6279;42.192;24.326;2023-12-20T06:49:41;99176.31;;;13.71
12430;BMP280;6279;42.192;24.326;2023-12-20T06:52:06;99180.47;;;13.80
12430;BMP280;6279;42.192;24.326;2023-12-20T06:54:32;99174.88;;;14.32
12430;BMP280;6279;42.192;24.326;2023-12-20T06:56:59;99181.31;;;14.77
12430;BMP280;6279;42.192;24.326;2023-12-20T06:59:24;99169.13;;;15.11
12430;BMP280;6279;42.192;24.326;2023-12-20T07:01:51;99168.47;;;15.35
12430;BMP280;6279;42.192;24.326;2023-12-20T07:04:16;99152.38;;;16.43
12430;BMP280;6279;42.192;24.326;2023-12-20T07:06:45;99158.09;;;17.04
12430;BMP280;6279;42.192;24.326;2023-12-20T07:09:10;99164.94;;;16.67
12430;BMP280;6279;42.192;24.326;2023-12-20T07:11:36;99148.13;;;18.00
12430;BMP280;6279;42.192;24.326;2023-12-20T07:14:01;99133.09;;;19.56
12430;BMP280;6279;42.192;24.326;2023-12-20T07:16:26;99134.31;;;20.65
12430;BMP280;6279;42.192;24.326;2023-12-20T07:18:52;99137.59;;;21.45
12430;BMP280;6279;42.192;24.326;2023-12-20T07:21:17;99131.00;;;22.63
12430;BMP280;6279;42.192;24.326;2023-12-20T07:23:43;99138.97;;;22.09
12430;BMP280;6279;42.192;24.326;2023-12-20T07:26:08;99137.16;;;21.26
12430;BMP280;6279;42.192;24.326;2023-12-20T07:28:35;99129.97;;;22.21
12430;BMP280;6279;42.192;24.326;2023-12-20T07:31:00;99128.13;;;23.30
12430;BMP280;6279;42.192;24.326;2023-12-20T07:33:26;99128.63;;;23.64
12430;BMP280;6279;42.192;24.326;2023-12-20T07:35:51;99124.47;;;23.94
12430;BMP280;6279;42.192;24.326;2023-12-20T07:38:17;99127.59;;;23.65
12430;BMP280;6279;42.192;24.326;2023-12-20T07:40:42;99126.47;;;24.03
12430;BMP280;6279;42.192;24.326;2023-12-20T07:43:08;99116.13;;;24.27
12430;BMP280;6279;42.192;24.326;2023-12-20T07:45:33;99121.88;;;23.56
12430;BMP280;6279;42.192;24.326;2023-12-20T07:47:59;99127.19;;;23.56
12430;BMP280;6279;42.192;24.326;2023-12-20T07:50:24;99122.13;;;23.55
12430;BMP280;6279;42.192;24.326;2023-12-20T07:52:52;99119.75;;;23.37
12430;BMP280;6279;42.192;24.326;2023-12-20T07:55:18;99110.28;;;23.83
12430;BMP280;6279;42.192;24.326;2023-12-20T07:57:43;99102.28;;;23.78
12430;BMP280;6279;42.192;24.326;2023-12-20T08:00:09;99097.34;;;24.34
12430;BMP280;6279;42.192;24.326;2023-12-20T08:02:35;99096.56;;;24.38
12430;BMP280;6279;42.192;24.326;2023-12-20T08:05:00;99092.63;;;25.02
12430;BMP280;6279;42.192;24.326;2023-12-20T08:07:26;99096.97;;;25.18
12430;BMP280;6279;42.192;24.326;2023-12-20T08:09:51;99089.38;;;25.81
12430;BMP280;6279;42.192;24.326;2023-12-20T08:12:17;99088.25;;;26.52
12430;BMP280;6279;42.192;24.326;2023-12-20T08:14:42;99102.06;;;24.84
12430;BMP280;6279;42.192;24.326;2023-12-20T08:17:08;99098.22;;;24.18
12430;BMP280;6279;42.192;24.326;2023-12-20T08:19:33;99105.16;;;21.27
12430;BMP280;6279;42.192;24.326;2023-12-20T08:21:58;99119.06;;;19.03
12430;BMP280;6279;42.192;24.326;2023-12-20T08:24:24;99109.78;;;17.73
12430;BMP280;6279;42.192;24.326;2023-12-20T08:26:49;99101.50;;;16.44
12430;BMP280;6279;42.192;24.326;2023-12-20T08:29:15;99112.13;;;14.65
12430;BMP280;6279;42.192;24.326;2023-12-20T08:31:40;99098.97;;;14.11
12430;BMP280;6279;42.192;24.326;2023-12-20T08:34:05;99084.41;;;13.68
12430;BMP280;6279;42.192;24.326;2023-12-20T08:36:31;99079.81;;;13.07
12430;BMP280;6279;42.192;24.326;2023-12-20T08:38:56;99082.28;;;12.58
12430;BMP280;6279;42.192;24.326;2023-12-20T08:41:22;99075.69;;;12.62
12430;BMP280;6279;42.192;24.326;2023-12-20T08:43:47;99074.63;;;12.20
12430;BMP280;6279;42.192;24.326;2023-12-20T08:46:14;99074.75;;;11.83
12430;BMP280;6279;42.192;24.326;2023-12-20T08:48:40;99059.28;;;12.03
12430;BMP280;6279;42.192;24.326;2023-12-20T08:51:05;99057.50;;;12.40
12430;BMP280;6279;42.192;24.326;2023-12-20T08:53:34;99051.56;;;12.09
12430;BMP280;6279;42.192;24.326;2023-12-20T08:56:00;99039.59;;;12.37
12430;BMP280;6279;42.192;24.326;2023-12-20T08:58:27;99035.50;;;12.56
12430;BMP280;6279;42.192;24.326;2023-12-20T09:00:53;99024.66;;;12.31
12430;BMP280;6279;42.192;24.326;2023-12-20T09:03:18;99018.75;;;12.15
12430;BMP280;6279;42.192;24.326;2023-12-20T09:05:43;99008.16;;;12.52
12430;BMP280;6279;42.192;24.326;2023-12-20T09:08:09;99005.31;;;12.76
12430;BMP280;6279;42.192;24.326;2023-12-20T09:10:36;99003.44;;;13.19
12430;BMP280;6279;42.192;24.326;2023-12-20T09:13:02;98997.66;;;13.58
12430;BMP280;6279;42.192;24.326;2023-12-20T09:15:27;98993.63;;;14.17
12430;BMP280;6279;42.192;24.326;2023-12-20T09:17:55;98992.75;;;14.64
12430;BMP280;6279;42.192;24.326;2023-12-20T09:20:20;98986.38;;;15.06
12430;BMP280;6279;42.192;24.326;2023-12-20T09:22:46;98973.81;;;15.54
12430;BMP280;6279;42.192;24.326;2023-12-20T09:25:12;98958.09;;;16.68
12430;BMP280;6279;42.192;24.326;2023-12-20T09:27:39;98953.34;;;16.27
12430;BMP280;6279;42.192;24.326;2023-12-20T09:30:05;98951.28;;;15.91
12430;BMP280;6279;42.192;24.326;2023-12-20T09:32:31;98940.50;;;16.69
12430;BMP280;6279;42.192;24.326;2023-12-20T09:34:56;98929.38;;;19.26
12430;BMP280;6279;42.192;24.326;2023-12-20T09:37:26;98918.88;;;21.23
12430;BMP280;6279;42.192;24.326;2023-12-20T09:39:53;98910.81;;;22.91
12430;BMP280;6279;42.192;24.326;2023-12-20T09:44:58;98921.03;;;23.72
12430;BMP280;6279;42.192;24.326;2023-12-20T09:47:24;98912.25;;;23.97
12430;BMP280;6279;42.192;24.326;2023-12-20T09:49:50;98910.00;;;24.10
12430;BMP280;6279;42.192;24.326;2023-12-20T09:52:18;98898.75;;;24.34
12430;BMP280;6279;42.192;24.326;2023-12-20T09:54:44;98895.91;;;24.86
12430;BMP280;6279;42.192;24.326;2023-12-20T09:57:09;98887.94;;;26.05
12430;BMP280;6279;42.192;24.326;2023-12-20T09:59:35;98889.50;;;25.91
12430;BMP280;6279;42.192;24.326;2023-12-20T10:02:01;98877.53;;;26.23
12430;BMP280;6279;42.192;24.326;2023-12-20T10:04:31;98875.38;;;26.40
12430;BMP280;6279;42.192;24.326;2023-12-20T10:07:02;98871.91;;;25.56
12430;BMP280;6279;42.192;24.326;2023-12-20T10:09:31;98868.72;;;24.79
12430;BMP280;6279;42.192;24.326;2023-12-20T10:11:57;98862.06;;;25.91
12430;BMP280;6279;42.192;24.326;2023-12-20T10:14:23;98872.03;;;25.10
12430;BMP280;6279;42.192;24.326;2023-12-20T10:16:48;98859.00;;;24.54
12430;BMP280;6279;42.192;24.326;2023-12-20T10:19:16;98866.00;;;23.15
12430;BMP280;6279;42.192;24.326;2023-12-20T10:21:42;98858.09;;;21.55
12430;BMP280;6279;42.192;24.326;2023-12-20T10:24:08;98845.34;;;20.37
12430;BMP280;6279;42.192;24.326;2023-12-20T10:26:33;98839.44;;;19.85
12430;BMP280;6279;42.192;24.326;2023-12-20T10:29:03;98850.53;;;18.78
12430;BMP280;6279;42.192;24.326;2023-12-20T10:31:32;98843.31;;;17.97
12430;BMP280;6279;42.192;24.326;2023-12-20T10:33:58;98836.09;;;17.62
12430;BMP280;6279;42.192;24.326;2023-12-20T10:36:30;98831.28;;;17.59
12430;BMP280;6279;42.192;24.326;2023-12-20T10:38:56;98822.84;;;17.51
12430;BMP280;6279;42.192;24.326;2023-12-20T10:41:28;98806.69;;;17.23
12430;BMP280;6279;42.192;24.326;2023-12-20T10:43:56;98805.00;;;17.05
12430;BMP280;6279;42.192;24.326;2023-12-20T10:46:24;98799.88;;;16.36
12430;BMP280;6279;42.192;24.326;2023-12-20T10:48:53;98782.66;;;15.72
12430;BMP280;6279;42.192;24.326;2023-12-20T10:51:20;98780.66;;;15.10
12430;BMP280;6279;42.192;24.326;2023-12-20T10:53:47;98791.69;;;14.28
12430;BMP280;6279;42.192;24.326;2023-12-20T10:56:16;98778.31;;;14.10
12430;BMP280;6279;42.192;24.326;2023-12-20T10:58:42;98771.00;;;14.39
12430;BMP280;6279;42.192;24.326;2023-12-20T11:01:12;98769.31;;;13.86
12430;BMP280;6279;42.192;24.326;2023-12-20T11:03:43;98764.25;;;13.78
12430;BMP280;6279;42.192;24.326;2023-12-20T11:06:22;98762.38;;;13.66
12430;BMP280;6279;42.192;24.326;2023-12-20T11:08:55;98761.94;;;13.62
12430;BMP280;6279;42.192;24.326;2023-12-20T11:11:33;98762.63;;;13.44
12430;BMP280;6279;42.192;24.326;2023-12-20T11:14:15;98745.34;;;13.43
12430;BMP280;6279;42.192;24.326;2023-12-20T11:16:42;98745.00;;;13.58
12430;BMP280;6279;42.192;24.326;2023-12-20T11:19:07;98734.72;;;13.78
12430;BMP280;6279;42.192;24.326;2023-12-20T11:21:33;98733.16;;;13.89
12430;BMP280;6279;42.192;24.326;2023-12-20T11:23:59;98728.97;;;13.61
12430;BMP280;6279;42.192;24.326;2023-12-20T11:26:28;98722.16;;;13.67
12430;BMP280;6279;42.192;24.326;2023-12-20T11:29:18;98717.25;;;13.51
12430;BMP280;6279;42.192;24.326;2023-12-20T11:31:40;98712.13;;;13.70
12430;BMP280;6279;42.192;24.326;2023-12-20T11:34:17;98706.88;;;13.31
12430;BMP280;6279;42.192;24.326;2023-12-20T11:36:42;98705.44;;;13.28
12430;BMP280;6279;42.192;24.326;2023-12-20T11:39:08;98701.56;;;13.51
12430;BMP280;6279;42.192;24.326;2023-12-20T11:41:36;98694.41;;;13.59
12430;BMP280;6279;42.192;24.326;2023-12-20T11:44:04;98694.69;;;13.77
12430;BMP280;6279;42.192;24.326;2023-12-20T11:46:31;98683.31;;;13.91
12430;BMP280;6279;42.192;24.326;2023-12-20T11:48:56;98687.28;;;13.81
12430;BMP280;6279;42.192;24.326;2023-12-20T11:51:22;98677.53;;;13.68
12430;BMP280;6279;42.192;24.326;2023-12-20T11:53:51;98677.09;;;13.58
12430;BMP280;6279;42.192;24.326;2023-12-20T11:56:17;98676.03;;;13.47
12430;BMP280;6279;42.192;24.326;2023-12-20T11:58:43;98667.81;;;13.50
12430;BMP280;6279;42.192;24.326;2023-12-20T12:01:08;98654.44;;;13.32
12430;BMP280;6279;42.192;24.326;2023-12-20T12:03:34;98654.91;;;13.09
12430;BMP280;6279;42.192;24.326;2023-12-20T12:05:59;98657.78;;;13.20
12430;BMP280;6279;42.192;24.326;2023-12-20T12:08:26;98655.53;;;13.17
12430;BMP280;6279;42.192;24.326;2023-12-20T12:10:51;98654.16;;;13.21
12430;BMP280;6279;42.192;24.326;2023-12-20T12:13:17;98653.50;;;13.13
12430;BMP280;6279;42.192;24.326;2023-12-20T12:15:42;98644.72;;;13.20
12430;BMP280;6279;42.192;24.326;2023-12-20T12:18:08;98643.53;;;13.22
12430;BMP280;6279;42.192;24.326;2023-12-20T12:20:34;98641.56;;;13.24
12430;BMP280;6279;42.192;24.326;2023-12-20T12:23:04;98628.31;;;13.32
12430;BMP280;6279;42.192;24.326;2023-12-20T12:25:31;98635.16;;;13.33
12430;BMP280;6279;42.192;24.326;2023-12-20T12:27:57;98633.06;;;13.22
12430;BMP280;6279;42.192;24.326;2023-12-20T12:30:23;98632.28;;;12.89
12430;BMP280;6279;42.192;24.326;2023-12-20T12:32:50;98632.13;;;12.96
12430;BMP280;6279;42.192;24.326;2023-12-20T12:35:16;98632.41;;;12.81
12430;BMP280;6279;42.192;24.326;2023-12-20T12:37:43;98625.59;;;12.86
12430;BMP280;6279;42.192;24.326;2023-12-20T12:40:12;98621.53;;;12.77
12430;BMP280;6279;42.192;24.326;2023-12-20T12:42:38;98620.81;;;12.42
12430;BMP280;6279;42.192;24.326;2023-12-20T12:45:04;98612.31;;;12.34
12430;BMP280;6279;42.192;24.326;2023-12-20T12:47:30;98618.22;;;12.22
12430;BMP280;6279;42.192;24.326;2023-12-20T12:49:56;98611.38;;;12.21
12430;BMP280;6279;42.192;24.326;2023-12-20T12:52:21;98611.00;;;12.03
12430;BMP280;6279;42.192;24.326;2023-12-20T12:54:46;98612.31;;;11.79
12430;BMP280;6279;42.192;24.326;2023-12-20T12:57:14;98603.41;;;11.87
12430;BMP280;6279;42.192;24.326;2023-12-20T12:59:39;98605.47;;;11.92
12430;BMP280;6279;42.192;24.326;2023-12-20T13:02:05;98611.28;;;11.94
12430;BMP280;6279;42.192;24.326;2023-12-20T13:04:30;98603.84;;;11.91
12430;BMP280;6279;42.192;24.326;2023-12-20T13:06:56;98595.00;;;11.85
12430;BMP280;6279;42.192;24.326;2023-12-20T13:09:22;98604.16;;;11.82
12430;BMP280;6279;42.192;24.326;2023-12-20T13:11:48;98597.78;;;11.84
12430;BMP280;6279;42.192;24.326;2023-12-20T13:14:13;98603.81;;;11.70
12430;BMP280;6279;42.192;24.326;2023-12-20T13:16:41;98593.88;;;11.60
12430;BMP280;6279;42.192;24.326;2023-12-20T13:19:08;98594.59;;;11.68
12430;BMP280;6279;42.192;24.326;2023-12-20T13:21:35;98597.63;;;11.71
12430;BMP280;6279;42.192;24.326;2023-12-20T13:24:00;98597.09;;;11.61
12430;BMP280;6279;42.192;24.326;2023-12-20T13:26:25;98594.72;;;11.46
12430;BMP280;6279;42.192;24.326;2023-12-20T13:28:52;98590.41;;;11.39
12430;BMP280;6279;42.192;24.326;2023-12-20T13:31:17;98588.81;;;11.38
12430;BMP280;6279;42.192;24.326;2023-12-20T13:33:42;98588.25;;;11.28
12430;BMP280;6279;42.192;24.326;2023-12-20T13:36:08;98594.09;;;11.30
12430;BMP280;6279;42.192;24.326;2023-12-20T13:38:33;98581.78;;;11.38
12430;BMP280;6279;42.192;24.326;2023-12-20T13:40:59;98578.03;;;11.40
12430;BMP280;6279;42.192;24.326;2023-12-20T13:43:24;98584.28;;;11.32
12430;BMP280;6279;42.192;24.326;2023-12-20T13:45:50;98581.53;;;11.19
12430;BMP280;6279;42.192;24.326;2023-12-20T13:48:16;98583.13;;;11.20
12430;BMP280;6279;42.192;24.326;2023-12-20T13:50:41;98576.44;;;11.11
12430;BMP280;6279;42.192;24.326;2023-12-20T13:53:07;98580.00;;;11.10
12430;BMP280;6279;42.192;24.326;2023-12-20T13:55:32;98582.16;;;10.93
12430;BMP280;6279;42.192;24.326;2023-12-20T13:57:58;98583.16;;;10.92
12430;BMP280;6279;42.192;24.326;2023-12-20T14:00:23;98584.16;;;10.91
12430;BMP280;6279;42.192;24.326;2023-12-20T14:02:49;98581.00;;;10.81
12430;BMP280;6279;42.192;24.326;2023-12-20T14:05:15;98584.66;;;10.58
12430;BMP280;6279;42.192;24.326;2023-12-20T14:07:43;98579.84;;;10.47
12430;BMP280;6279;42.192;24.326;2023-12-20T14:10:11;98579.06;;;10.47